Time,TemperatureF,DewpointF,PressureIn,WindDirection,WindDirectionDegrees,WindSpeedMPH,WindSpeedGustMPH,Humidity,HourlyPrecipIn,Conditions,Clouds,dailyrainin,SolarRadiationWatts/m^2,SoftwareType,DateUTC
2013-01-28 00:01:00,28.0,21.0,-100.00,SSW,203,2.0,4.0,74,0.00,,,0.16,0.000000,,2013-01-28 05:01:00,
2013-01-28 00:32:00,28.0,21.0,-100.00,SSW,203,2.0,4.0,74,0.00,,,0.16,0.000000,,2013-01-28 05:32:00,
2013-01-28 00:42:00,28.0,21.0,-100.00,SSW,203,2.0,4.0,74,0.00,,,0.16,0.000000,,2013-01-28 05:42:00,
2013-01-28 00:52:00,28.0,21.0,-100.00,SSW,203,2.0,4.0,74,0.00,,,0.16,0.000000,,2013-01-28 05:52:00,
2013-01-28 01:01:00,28.0,22.0,-100.00,SSW,203,3.0,4.0,79,0.00,,,0.16,0.000000,,2013-01-28 06:01:00,
2013-01-28 01:32:00,28.0,22.0,-100.00,SSW,203,3.0,4.0,79,0.00,,,0.16,0.000000,,2013-01-28 06:32:00,
2013-01-28 01:42:00,28.0,22.0,-100.00,SSW,203,3.0,4.0,79,0.00,,,0.16,0.000000,,2013-01-28 06:42:00,
2013-01-28 01:52:00,28.0,22.0,-100.00,SSW,203,3.0,4.0,79,0.00,,,0.16,0.000000,,2013-01-28 06:52:00,
2013-01-28 02:01:00,28.0,24.0,-100.00,SW,236,2.0,4.0,85,0.00,,,0.16,0.000000,,2013-01-28 07:01:00,
2013-01-28 02:22:00,28.0,24.0,-100.00,SW,236,2.0,4.0,85,0.00,,,0.16,0.000000,,2013-01-28 07:22:00,
2013-01-28 02:32:00,28.0,24.0,-100.00,SW,236,2.0,4.0,85,0.00,,,0.16,0.000000,,2013-01-28 07:32:00,
2013-01-28 02:42:00,28.0,24.0,-100.00,SW,236,2.0,4.0,85,0.00,,,0.16,0.000000,,2013-01-28 07:42:00,
2013-01-28 02:52:00,28.0,24.0,-100.00,SW,236,2.0,4.0,85,0.00,,,0.16,0.000000,,2013-01-28 07:52:00,
2013-01-28 03:01:00,28.0,26.0,-100.00,SSW,203,2.0,5.0,93,0.00,,,0.16,0.000000,,2013-01-28 08:01:00,
2013-01-28 03:32:00,28.0,26.0,-100.00,SSW,203,2.0,5.0,93,0.00,,,0.16,0.000000,,2013-01-28 08:32:00,
2013-01-28 03:42:00,28.0,26.0,-100.00,SSW,203,2.0,5.0,93,0.00,,,0.16,0.000000,,2013-01-28 08:42:00,
2013-01-28 03:52:00,28.0,26.0,-100.00,SSW,203,2.0,5.0,93,0.00,,,0.16,0.000000,,2013-01-28 08:52:00,
2013-01-28 04:01:00,29.0,29.0,-100.00,SSW,210,3.0,5.0,99,0.00,,,0.16,0.000000,,2013-01-28 09:01:00,
2013-01-28 04:32:00,29.0,29.0,-100.00,SSW,210,3.0,5.0,99,0.00,,,0.16,0.000000,,2013-01-28 09:32:00,
2013-01-28 04:42:00,29.0,29.0,-100.00,SSW,210,3.0,5.0,99,0.00,,,0.16,0.000000,,2013-01-28 09:42:00,
2013-01-28 04:52:00,29.0,29.0,-100.00,SSW,210,3.0,5.0,99,0.00,,,0.16,0.000000,,2013-01-28 09:52:00,
2013-01-28 05:01:00,29.0,29.0,-100.00,South,191,4.0,6.0,100,0.00,,,0.16,0.000000,,2013-01-28 10:01:00,
2013-01-28 05:32:00,29.0,29.0,-100.00,South,191,4.0,6.0,100,0.00,,,0.16,0.000000,,2013-01-28 10:32:00,
2013-01-28 05:42:00,29.0,29.0,-100.00,South,191,4.0,6.0,100,0.00,,,0.16,0.000000,,2013-01-28 10:42:00,
2013-01-28 05:52:00,29.0,29.0,-100.00,South,191,4.0,6.0,100,0.00,,,0.16,0.000000,,2013-01-28 10:52:00,
2013-01-28 11:01:00,36.0,36.0,-100.00,SW,220,0.0,9.0,99,-99.99,,,0.40,237.000000,,2013-01-28 16:01:00,
2013-01-28 11:33:00,36.0,36.0,-100.00,SW,220,0.0,9.0,99,-99.99,,,0.40,237.000000,,2013-01-28 16:33:00,
2013-01-28 11:43:00,36.0,36.0,-100.00,SW,220,0.0,9.0,99,-99.99,,,0.40,237.000000,,2013-01-28 16:43:00,
2013-01-28 11:53:00,36.0,36.0,-100.00,SW,220,0.0,9.0,99,-99.99,,,0.40,237.000000,,2013-01-28 16:53:00,
2013-01-28 12:01:00,37.0,37.0,-100.00,SW,221,0.0,0.0,99,0.02,,,0.34,268.000000,,2013-01-28 17:01:00,
2013-01-28 12:33:00,37.0,37.0,-100.00,SW,221,0.0,0.0,99,0.02,,,0.34,268.000000,,2013-01-28 17:33:00,
2013-01-28 12:42:00,37.0,37.0,-100.00,SW,221,0.0,0.0,99,0.02,,,0.34,268.000000,,2013-01-28 17:42:00,
2013-01-28 12:53:00,37.0,37.0,-100.00,SW,221,0.0,0.0,99,0.02,,,0.34,268.000000,,2013-01-28 17:53:00,
2013-01-28 13:01:00,45.0,41.0,-100.00,SW,218,0.0,0.0,86,0.00,,,0.30,506.000000,,2013-01-28 18:01:00,
2013-01-28 13:23:00,45.0,41.0,-100.00,SW,218,0.0,0.0,86,0.00,,,0.30,506.000000,,2013-01-28 18:23:00,
2013-01-28 13:33:00,45.0,41.0,-100.00,SW,218,0.0,0.0,86,0.00,,,0.30,506.000000,,2013-01-28 18:33:00,
2013-01-28 13:43:00,45.0,41.0,-100.00,SW,218,0.0,0.0,86,0.00,,,0.30,506.000000,,2013-01-28 18:43:00,
2013-01-28 13:53:00,45.0,41.0,-100.00,SW,218,0.0,0.0,86,0.00,,,0.30,506.000000,,2013-01-28 18:53:00,
2013-01-28 14:01:00,42.0,39.0,-100.00,SW,221,0.0,0.0,90,0.00,,,0.30,298.000000,,2013-01-28 19:01:00,
2013-01-28 14:33:00,42.0,39.0,-100.00,SW,221,0.0,0.0,90,0.00,,,0.30,298.000000,,2013-01-28 19:33:00,
2013-01-28 14:43:00,42.0,39.0,-100.00,SW,221,0.0,0.0,90,0.00,,,0.30,298.000000,,2013-01-28 19:43:00,
2013-01-28 14:53:00,42.0,39.0,-100.00,SW,221,0.0,0.0,90,0.00,,,0.30,298.000000,,2013-01-28 19:53:00,
2013-01-28 15:01:00,48.0,42.0,-100.00,SW,214,0.0,0.0,80,0.00,,,0.30,362.000000,,2013-01-28 20:01:00,
2013-01-28 15:33:00,48.0,42.0,-100.00,SW,214,0.0,0.0,80,0.00,,,0.30,362.000000,,2013-01-28 20:33:00,
2013-01-28 15:43:00,48.0,42.0,-100.00,SW,214,0.0,0.0,80,0.00,,,0.30,362.000000,,2013-01-28 20:43:00,
2013-01-28 15:53:00,48.0,42.0,-100.00,SW,214,0.0,0.0,80,0.00,,,0.30,362.000000,,2013-01-28 20:53:00,
2013-01-28 16:01:00,51.0,43.0,-100.00,WSW,241,0.0,0.0,74,0.00,,,0.30,285.000000,,2013-01-28 21:01:00,
2013-01-28 16:34:00,51.0,43.0,-100.00,WSW,241,0.0,0.0,74,0.00,,,0.30,285.000000,,2013-01-28 21:34:00,
2013-01-28 16:43:00,51.0,43.0,-100.00,WSW,241,0.0,0.0,74,0.00,,,0.30,285.000000,,2013-01-28 21:43:00,
2013-01-28 16:53:00,51.0,43.0,-100.00,WSW,241,0.0,0.0,74,0.00,,,0.30,285.000000,,2013-01-28 21:53:00,
2013-01-28 17:01:00,49.0,43.0,-100.00,SW,223,0.0,0.0,81,0.00,,,0.30,69.000000,,2013-01-28 22:01:00,
2013-01-28 17:23:00,49.0,43.0,-100.00,SW,223,0.0,0.0,81,0.00,,,0.30,69.000000,,2013-01-28 22:23:00,
2013-01-28 17:33:00,49.0,43.0,-100.00,SW,223,0.0,0.0,81,0.00,,,0.30,69.000000,,2013-01-28 22:33:00,
2013-01-28 17:42:00,49.0,43.0,-100.00,SW,223,0.0,0.0,81,0.00,,,0.30,69.000000,,2013-01-28 22:42:00,
2013-01-28 17:52:00,49.0,43.0,-100.00,SW,223,0.0,0.0,81,0.00,,,0.30,69.000000,,2013-01-28 22:52:00,
2013-01-28 18:01:00,47.0,44.0,-100.00,SW,223,0.0,0.0,89,0.00,,,0.30,27.000000,,2013-01-28 23:01:00,
2013-01-28 18:33:00,47.0,44.0,-100.00,SW,223,0.0,0.0,89,0.00,,,0.30,27.000000,,2013-01-28 23:33:00,
2013-01-28 18:42:00,47.0,44.0,-100.00,SW,223,0.0,0.0,89,0.00,,,0.30,27.000000,,2013-01-28 23:42:00,
2013-01-28 18:53:00,47.0,44.0,-100.00,SW,223,0.0,0.0,89,0.00,,,0.30,27.000000,,2013-01-28 23:53:00,
2013-01-28 19:01:00,47.0,45.0,-100.00,SW,228,0.0,0.0,94,0.00,,,0.30,0.000000,,2013-01-29 00:01:00,
2013-01-28 19:33:00,47.0,45.0,-100.00,SW,228,0.0,0.0,94,0.00,,,0.30,0.000000,,2013-01-29 00:33:00,
2013-01-28 19:42:00,47.0,45.0,-100.00,SW,228,0.0,0.0,94,0.00,,,0.30,0.000000,,2013-01-29 00:42:00,
2013-01-28 19:52:00,47.0,45.0,-100.00,SW,228,0.0,0.0,94,0.00,,,0.30,0.000000,,2013-01-29 00:52:00,
2013-01-28 20:01:00,47.0,46.0,-100.00,SW,229,0.0,0.0,98,0.00,,,0.30,0.000000,,2013-01-29 01:01:00,
2013-01-28 20:32:00,47.0,46.0,-100.00,SW,229,0.0,0.0,98,0.00,,,0.30,0.000000,,2013-01-29 01:32:00,
2013-01-28 20:42:00,47.0,46.0,-100.00,SW,229,0.0,0.0,98,0.00,,,0.30,0.000000,,2013-01-29 01:42:00,
2013-01-28 20:53:00,47.0,46.0,-100.00,SW,229,0.0,0.0,98,0.00,,,0.30,0.000000,,2013-01-29 01:53:00,
2013-01-28 21:01:00,47.0,47.0,-100.00,SW,235,0.0,0.0,100,0.00,,,0.30,0.000000,,2013-01-29 02:01:00,
2013-01-28 21:33:00,47.0,47.0,-100.00,SW,235,0.0,0.0,100,0.00,,,0.30,0.000000,,2013-01-29 02:33:00,
2013-01-28 21:42:00,47.0,47.0,-100.00,SW,235,0.0,0.0,100,0.00,,,0.30,0.000000,,2013-01-29 02:42:00,
2013-01-28 21:53:00,47.0,47.0,-100.00,SW,235,0.0,0.0,100,0.00,,,0.30,0.000000,,2013-01-29 02:53:00,
2013-01-28 22:01:00,46.0,46.0,-100.00,SW,228,0.0,0.0,100,0.00,,,0.30,0.000000,,2013-01-29 03:01:00,
2013-01-28 22:22:00,46.0,46.0,-100.00,SW,228,0.0,0.0,100,0.00,,,0.30,0.000000,,2013-01-29 03:22:00,
2013-01-28 22:32:00,46.0,46.0,-100.00,SW,228,0.0,0.0,100,0.00,,,0.30,0.000000,,2013-01-29 03:32:00,
2013-01-28 22:42:00,46.0,46.0,-100.00,SW,228,0.0,0.0,100,0.00,,,0.30,0.000000,,2013-01-29 03:42:00,
2013-01-28 22:53:00,46.0,46.0,-100.00,SW,228,0.0,0.0,100,0.00,,,0.30,0.000000,,2013-01-29 03:53:00,
2013-01-28 23:01:00,46.0,46.0,-100.00,SW,230,0.0,0.0,100,0.00,,,0.30,0.000000,,2013-01-29 04:01:00,
2013-01-28 23:32:00,46.0,46.0,-100.00,SW,230,0.0,0.0,100,0.00,,,0.30,0.000000,,2013-01-29 04:32:00,
2013-01-28 23:42:00,46.0,46.0,-100.00,SW,230,0.0,0.0,100,0.00,,,0.30,0.000000,,2013-01-29 04:42:00,
2013-01-28 23:52:00,46.0,46.0,-100.00,SW,230,0.0,0.0,100,0.00,,,0.30,0.000000,,2013-01-29 04:52:00,